createdAt,value
2023-05-15T00:00:06.589Z,14.28
2023-05-15T00:02:36.887Z,14.32
2023-05-15T00:05:08.707Z,14.27
2023-05-15T00:07:37.547Z,13.69
2023-05-15T00:10:07.779Z,13.31
2023-05-15T00:12:35.654Z,14.05
2023-05-15T00:15:03.688Z,13.22
2023-05-15T00:17:31.546Z,14.06
2023-05-15T00:20:00.540Z,14.03
2023-05-15T00:22:28.526Z,13.85
2023-05-15T00:24:56.335Z,13.87
2023-05-15T00:27:26.620Z,13.86
2023-05-15T00:29:54.548Z,13.68
2023-05-15T00:32:22.452Z,13.73
2023-05-15T00:34:50.417Z,13.63
2023-05-15T00:37:18.588Z,13.51
2023-05-15T00:39:46.432Z,13.39
2023-05-15T00:42:16.303Z,13.41
2023-05-15T00:44:46.658Z,13.35
2023-05-15T00:47:17.079Z,13.27
2023-05-15T00:49:46.163Z,13.23
2023-05-15T00:52:15.317Z,13.15
2023-05-15T00:54:43.191Z,12.90
2023-05-15T00:57:12.605Z,13.17
2023-05-15T00:59:41.131Z,13.12
2023-05-15T01:02:10.579Z,13.16
2023-05-15T01:04:38.584Z,13.12
2023-05-15T01:07:06.403Z,13.05
2023-05-15T01:09:35.553Z,12.98
2023-05-15T01:12:04.038Z,12.92
2023-05-15T01:14:31.890Z,12.86
2023-05-15T01:16:59.765Z,12.82
2023-05-15T01:19:29.250Z,12.76
2023-05-15T01:22:24.561Z,12.69
2023-05-15T01:25:13.080Z,12.64
2023-05-15T01:27:49.877Z,12.58
2023-05-15T01:30:23.372Z,12.50
2023-05-15T01:33:01.239Z,12.46
2023-05-15T01:35:35.340Z,12.30
2023-05-15T01:38:13.827Z,12.38
2023-05-15T01:40:43.072Z,12.41
2023-05-15T01:43:19.540Z,12.35
2023-05-15T01:45:47.619Z,12.26
2023-05-15T01:48:16.538Z,12.18
2023-05-15T01:50:46.744Z,12.11
2023-05-15T01:53:16.305Z,12.10
2023-05-15T01:55:45.060Z,12.06
2023-05-15T01:58:15.368Z,12.03
2023-05-15T02:00:44.019Z,11.99
2023-05-15T02:03:12.529Z,11.91
2023-05-15T02:05:41.430Z,11.83
2023-05-15T02:08:10.648Z,11.98
2023-05-15T02:10:38.561Z,11.96
2023-05-15T02:13:07.357Z,11.87
2023-05-15T02:15:38.010Z,11.86
2023-05-15T02:18:06.730Z,11.96
2023-05-15T02:20:34.671Z,11.89
2023-05-15T02:23:02.528Z,11.89
2023-05-15T02:25:39.817Z,11.86
2023-05-15T02:28:18.388Z,11.83
2023-05-15T02:30:56.193Z,11.80
2023-05-15T02:33:31.339Z,11.79
2023-05-15T02:36:03.120Z,11.75
2023-05-15T02:38:36.757Z,11.71
2023-05-15T02:41:07.260Z,11.63
2023-05-15T02:43:37.369Z,11.64
2023-05-15T02:46:11.623Z,11.65
2023-05-15T02:48:42.659Z,11.70
2023-05-15T02:51:12.283Z,11.72
2023-05-15T02:53:41.472Z,11.74
2023-05-15T02:56:12.155Z,11.77
2023-05-15T02:58:41.098Z,11.78
2023-05-15T03:01:10.382Z,11.79
2023-05-15T03:03:38.568Z,11.81
2023-05-15T03:06:06.732Z,11.85
2023-05-15T03:08:34.980Z,11.86
2023-05-15T03:11:02.836Z,11.81
2023-05-15T03:13:30.846Z,11.78
2023-05-15T03:15:58.680Z,11.75
2023-05-15T03:18:28.200Z,11.76
2023-05-15T03:20:58.487Z,11.78
2023-05-15T03:23:26.524Z,11.81
2023-05-15T03:25:55.544Z,11.02
2023-05-15T03:28:23.453Z,11.89
2023-05-15T03:30:51.287Z,11.91
2023-05-15T03:33:20.652Z,11.93
2023-05-15T03:35:52.052Z,11.96
2023-05-15T03:38:20.751Z,11.96
2023-05-15T03:40:51.090Z,11.99
2023-05-15T03:43:19.395Z,12.00
2023-05-15T03:45:47.269Z,12.01
2023-05-15T03:48:15.277Z,12.07
2023-05-15T03:50:45.147Z,12.08
2023-05-15T03:53:14.361Z,11.95
2023-05-15T03:55:42.345Z,12.22
2023-05-15T03:58:10.253Z,12.25
2023-05-15T04:00:38.272Z,12.27
2023-05-15T04:03:06.407Z,12.33
2023-05-15T04:05:34.354Z,12.39
2023-05-15T04:08:02.266Z,12.37
2023-05-15T04:10:32.465Z,12.46
2023-05-15T04:13:01.659Z,12.50
2023-05-15T04:15:29.866Z,12.50
2023-05-15T04:18:00.213Z,12.52
2023-05-15T04:20:30.743Z,12.54
2023-05-15T04:22:58.654Z,12.58
2023-05-15T04:25:27.338Z,12.57
2023-05-15T04:27:56.759Z,12.59
2023-05-15T04:30:24.780Z,12.59
2023-05-15T04:32:53.045Z,12.64
2023-05-15T04:35:20.908Z,12.68
2023-05-15T04:37:48.891Z,12.75
2023-05-15T04:40:17.086Z,12.80
2023-05-15T04:42:45.043Z,12.83
2023-05-15T04:45:14.845Z,12.86
2023-05-15T04:47:42.873Z,12.79
2023-05-15T04:50:11.359Z,12.96
2023-05-15T04:52:39.210Z,12.84
2023-05-15T04:55:08.254Z,13.03
2023-05-15T04:57:36.120Z,12.98
2023-05-15T05:00:05.914Z,13.03
2023-05-15T05:02:35.236Z,13.01
2023-05-15T05:05:03.149Z,12.89
2023-05-15T05:07:31.008Z,12.98
2023-05-15T05:09:58.979Z,13.00
2023-05-15T05:12:28.030Z,13.02
2023-05-15T05:14:56.807Z,12.97
2023-05-15T05:17:24.971Z,13.05
2023-05-15T05:19:54.457Z,13.05
2023-05-15T05:22:22.307Z,13.07
2023-05-15T05:24:50.269Z,13.11
2023-05-15T05:27:18.105Z,13.17
2023-05-15T05:29:47.430Z,13.21
2023-05-15T05:32:15.448Z,13.34
2023-05-15T05:34:43.325Z,13.33
2023-05-15T05:37:12.527Z,13.49
2023-05-15T05:39:40.446Z,13.60
2023-05-15T05:42:08.369Z,13.72
2023-05-15T05:44:36.320Z,13.79
2023-05-15T05:47:04.762Z,13.93
2023-05-15T05:49:32.684Z,14.03
2023-05-15T05:52:06.686Z,14.14
2023-05-15T05:54:36.119Z,14.15
2023-05-15T05:57:04.066Z,14.34
2023-05-15T05:59:32.129Z,14.48
2023-05-15T06:02:00.279Z,14.62
2023-05-15T06:04:28.370Z,14.76
2023-05-15T06:06:57.746Z,14.94
2023-05-15T06:09:25.636Z,15.09
2023-05-15T06:11:54.848Z,15.30
2023-05-15T06:14:23.353Z,15.43
2023-05-15T06:16:51.551Z,15.67
2023-05-15T06:19:19.461Z,15.86
2023-05-15T06:21:47.537Z,16.06
2023-05-15T06:24:15.586Z,16.10
2023-05-15T06:26:43.598Z,16.43
2023-05-15T06:29:16.052Z,16.59
2023-05-15T06:31:43.901Z,16.70
2023-05-15T06:34:11.822Z,16.85
2023-05-15T06:36:39.715Z,16.98
2023-05-15T06:39:10.709Z,17.03
2023-05-15T06:41:39.003Z,17.07
2023-05-15T06:44:06.858Z,17.06
2023-05-15T06:46:36.154Z,17.17
2023-05-15T06:49:04.296Z,17.23
2023-05-15T06:51:32.251Z,17.19
2023-05-15T06:54:00.154Z,17.28
2023-05-15T06:56:28.054Z,17.44
2023-05-15T06:58:56.833Z,17.43
2023-05-15T07:01:24.833Z,17.27
2023-05-15T07:03:54.310Z,17.60
2023-05-15T07:06:22.228Z,17.50
2023-05-15T07:08:50.111Z,17.65
2023-05-15T07:11:18.410Z,17.74
2023-05-15T07:13:46.685Z,17.80
2023-05-15T07:16:14.768Z,17.80
2023-05-15T07:18:45.398Z,17.72
2023-05-15T07:21:14.876Z,17.80
2023-05-15T07:23:42.756Z,17.81
2023-05-15T07:26:16.910Z,17.98
2023-05-15T07:28:48.066Z,18.16
2023-05-15T07:31:16.014Z,18.40
2023-05-15T07:33:43.886Z,18.77
2023-05-15T07:36:13.141Z,19.10
2023-05-15T07:38:42.447Z,19.69
2023-05-15T07:41:10.635Z,19.92
2023-05-15T07:43:40.536Z,21.17
2023-05-15T07:46:08.538Z,21.93
2023-05-15T07:48:36.476Z,22.57
2023-05-15T07:51:04.352Z,23.17
2023-05-15T07:53:33.334Z,23.63
2023-05-15T07:56:02.645Z,23.85
2023-05-15T07:58:30.490Z,24.12
2023-05-15T08:00:58.500Z,24.32
2023-05-15T08:03:26.727Z,24.61
2023-05-15T08:05:54.654Z,24.64
2023-05-15T08:08:23.224Z,25.29
2023-05-15T08:10:51.048Z,25.55
2023-05-15T08:13:20.256Z,25.68
2023-05-15T08:15:48.292Z,25.76
2023-05-15T08:18:16.184Z,25.98
2023-05-15T08:20:44.256Z,26.13
2023-05-15T08:23:15.270Z,26.33
2023-05-15T08:25:43.164Z,26.69
2023-05-15T08:28:12.246Z,27.05
2023-05-15T08:30:42.309Z,26.98
2023-05-15T08:33:10.256Z,26.18
2023-05-15T08:35:38.108Z,25.74
2023-05-15T08:38:06.223Z,25.60
2023-05-15T08:40:38.961Z,25.68
2023-05-15T08:43:15.144Z,25.29
2023-05-15T08:45:44.798Z,25.27
2023-05-15T08:48:15.569Z,24.95
2023-05-15T08:50:44.808Z,24.66
2023-05-15T08:53:13.908Z,24.69
2023-05-15T08:55:42.688Z,24.58
2023-05-15T08:58:11.097Z,24.43
2023-05-15T09:00:39.460Z,24.54
2023-05-15T09:03:15.443Z,24.97
2023-05-15T09:05:43.998Z,25.23
2023-05-15T09:08:12.122Z,25.17
2023-05-15T09:10:40.127Z,24.99
2023-05-15T09:13:09.013Z,24.97
2023-05-15T09:15:37.622Z,25.05
2023-05-15T09:18:07.968Z,25.15
2023-05-15T09:20:41.062Z,25.15
2023-05-15T09:23:24.753Z,25.15
2023-05-15T09:25:55.675Z,25.23
2023-05-15T09:28:29.304Z,25.27
2023-05-15T09:31:01.692Z,24.71
2023-05-15T09:33:31.454Z,25.60
2023-05-15T09:36:00.987Z,25.72
2023-05-15T09:38:29.313Z,25.91
2023-05-15T09:41:03.707Z,26.23
2023-05-15T09:43:35.053Z,26.72
2023-05-15T09:46:02.967Z,26.97
2023-05-15T09:48:32.487Z,27.22
2023-05-15T09:51:05.900Z,27.33
2023-05-15T09:53:35.866Z,27.46
2023-05-15T09:56:06.576Z,27.76
2023-05-15T09:58:36.466Z,28.11
2023-05-15T10:01:11.663Z,28.32
2023-05-15T10:03:44.028Z,28.54
2023-05-15T10:06:19.768Z,28.78
2023-05-15T10:08:52.642Z,28.95
2023-05-15T10:11:21.031Z,28.76
2023-05-15T10:13:49.227Z,28.67
2023-05-15T10:16:22.062Z,27.86
2023-05-15T10:18:52.489Z,27.14
2023-05-15T10:21:23.574Z,26.16
2023-05-15T10:23:52.123Z,25.64
2023-05-15T10:26:24.940Z,25.50
2023-05-15T10:28:54.136Z,25.15
2023-05-15T10:31:23.252Z,24.94
2023-05-15T10:33:53.895Z,24.78
2023-05-15T10:36:24.668Z,24.66
2023-05-15T10:38:53.217Z,24.43
2023-05-15T10:41:22.643Z,24.42
2023-05-15T10:43:54.638Z,23.58
2023-05-15T10:46:22.997Z,23.97
2023-05-15T10:48:51.801Z,23.42
2023-05-15T10:51:25.803Z,23.15
2023-05-15T10:53:55.252Z,22.63
2023-05-15T10:56:28.135Z,22.69
2023-05-15T10:58:56.737Z,22.62
2023-05-15T11:01:29.751Z,22.63
2023-05-15T11:04:08.830Z,22.45
2023-05-15T11:06:37.568Z,22.36
2023-05-15T11:09:40.829Z,22.12
2023-05-15T11:12:12.941Z,22.02
2023-05-15T11:14:43.223Z,21.88
2023-05-15T11:17:12.384Z,21.83
2023-05-15T11:19:59.039Z,21.84
2023-05-15T11:22:32.994Z,21.80
2023-05-15T11:25:03.554Z,21.71
2023-05-15T11:27:32.816Z,21.66
2023-05-15T11:30:15.104Z,21.56
2023-05-15T11:32:50.187Z,21.52
2023-05-15T11:35:24.367Z,21.43
2023-05-15T11:37:54.242Z,21.42
2023-05-15T11:40:25.921Z,21.43
2023-05-15T11:43:05.714Z,21.51
2023-05-15T11:45:35.991Z,21.56
2023-05-15T11:48:06.347Z,21.54
2023-05-15T11:50:36.179Z,21.53
2023-05-15T11:53:06.444Z,21.59
2023-05-15T11:55:37.187Z,21.70
2023-05-15T11:58:11.505Z,21.73
2023-05-15T12:00:41.281Z,21.91
2023-05-15T12:03:16.597Z,21.98
2023-05-15T12:05:57.364Z,21.97
2023-05-15T12:08:31.813Z,22.22
2023-05-15T12:11:01.759Z,22.40
2023-05-15T12:13:30.524Z,22.70
2023-05-15T12:15:58.646Z,22.98
2023-05-15T12:18:26.789Z,22.88
2023-05-15T12:20:56.148Z,23.19
2023-05-15T12:23:25.619Z,22.97
2023-05-15T12:25:58.415Z,22.86
2023-05-15T12:28:29.785Z,22.71
2023-05-15T12:30:58.524Z,22.59
2023-05-15T12:33:26.614Z,22.57
2023-05-15T12:36:00.873Z,22.74
2023-05-15T12:38:30.545Z,22.99
2023-05-15T12:40:59.252Z,23.16
2023-05-15T12:43:28.587Z,23.20
2023-05-15T12:45:57.353Z,23.19
2023-05-15T12:48:30.804Z,23.06
2023-05-15T12:51:06.039Z,23.41
2023-05-15T12:53:35.379Z,23.47
2023-05-15T12:56:04.794Z,23.70
2023-05-15T12:58:35.004Z,24.09
2023-05-15T13:01:04.547Z,24.21
2023-05-15T13:03:33.338Z,24.17
2023-05-15T13:06:03.225Z,23.94
2023-05-15T13:08:31.572Z,23.49
2023-05-15T13:11:00.906Z,23.56
2023-05-15T13:13:48.769Z,23.39
2023-05-15T13:16:26.379Z,23.40
2023-05-15T13:18:54.845Z,23.30
2023-05-15T13:21:22.839Z,23.14
2023-05-15T13:23:53.049Z,22.98
2023-05-15T13:26:20.952Z,22.78
2023-05-15T13:28:50.345Z,22.85
2023-05-15T13:31:18.331Z,23.12
2023-05-15T13:33:46.318Z,22.15
2023-05-15T13:36:14.272Z,23.29
2023-05-15T13:38:42.226Z,23.25
2023-05-15T13:41:10.460Z,23.54
2023-05-15T13:43:38.368Z,23.60
2023-05-15T13:46:09.967Z,23.90
2023-05-15T13:48:37.852Z,23.84
2023-05-15T13:51:06.390Z,23.59
2023-05-15T13:53:34.289Z,23.50
2023-05-15T13:56:02.392Z,23.75
2023-05-15T13:58:30.581Z,23.89
2023-05-15T14:00:58.487Z,23.94
2023-05-15T14:03:27.895Z,24.10
2023-05-15T14:05:55.952Z,24.23
2023-05-15T14:08:23.773Z,24.27
2023-05-15T14:10:51.641Z,24.52
2023-05-15T14:13:19.942Z,25.22
2023-05-15T14:15:47.788Z,25.94
2023-05-15T14:18:15.724Z,26.25
2023-05-15T14:20:45.117Z,25.96
2023-05-15T14:23:13.010Z,25.53
2023-05-15T14:25:42.241Z,25.34
2023-05-15T14:28:10.150Z,25.08
2023-05-15T14:30:38.025Z,24.75
2023-05-15T14:33:05.957Z,24.56
2023-05-15T14:35:34.090Z,24.61
2023-05-15T14:38:03.427Z,24.77
2023-05-15T14:40:31.279Z,25.06
2023-05-15T14:42:59.224Z,25.88
2023-05-15T14:45:27.545Z,26.71
2023-05-15T14:47:55.498Z,27.44
2023-05-15T14:50:23.709Z,27.33
2023-05-15T14:52:51.698Z,26.90
2023-05-15T14:55:22.112Z,26.19
2023-05-15T14:57:50.848Z,25.41
2023-05-15T15:00:19.461Z,24.66
2023-05-15T15:02:49.841Z,24.33
2023-05-15T15:05:18.699Z,24.40
2023-05-15T15:08:00.224Z,25.15
2023-05-15T15:10:30.163Z,26.05
2023-05-15T15:12:58.386Z,26.71
2023-05-15T15:15:26.835Z,26.70
2023-05-15T15:17:56.211Z,26.62
2023-05-15T15:20:25.402Z,26.27
2023-05-15T15:22:53.993Z,25.92
2023-05-15T15:25:22.663Z,25.18
2023-05-15T15:27:52.416Z,25.14
2023-05-15T15:30:20.814Z,25.13
2023-05-15T15:32:48.814Z,25.37
2023-05-15T15:35:16.714Z,25.48
2023-05-15T15:37:44.590Z,25.71
2023-05-15T15:40:13.034Z,25.73
2023-05-15T15:42:40.866Z,25.89
2023-05-15T15:45:10.593Z,25.93
2023-05-15T15:47:38.601Z,25.91
2023-05-15T15:50:07.245Z,25.95
2023-05-15T15:52:35.160Z,25.92
2023-05-15T15:55:03.944Z,26.08
2023-05-15T15:57:31.919Z,26.08
2023-05-15T15:59:59.834Z,26.26
2023-05-15T16:02:29.453Z,26.34
2023-05-15T16:04:57.340Z,26.71
2023-05-15T16:07:25.179Z,27.23
2023-05-15T16:10:04.194Z,27.41
2023-05-15T16:12:40.015Z,27.20
2023-05-15T16:17:42.812Z,27.57
2023-05-15T16:20:11.331Z,27.43
2023-05-15T16:22:41.713Z,26.56
2023-05-15T16:25:10.211Z,26.46
2023-05-15T16:27:38.309Z,26.34
2023-05-15T16:30:07.092Z,26.25
2023-05-15T16:32:35.140Z,25.87
2023-05-15T16:35:04.987Z,25.58
2023-05-15T16:37:32.820Z,25.86
2023-05-15T16:40:00.857Z,25.37
2023-05-15T16:42:28.815Z,25.05
2023-05-15T16:44:56.652Z,24.72
2023-05-15T16:47:24.553Z,24.49
2023-05-15T16:49:52.494Z,24.27
2023-05-15T16:52:22.298Z,23.20
2023-05-15T16:54:50.128Z,23.41
2023-05-15T16:57:17.962Z,23.01
2023-05-15T16:59:46.093Z,22.73
2023-05-15T17:02:14.122Z,22.58
2023-05-15T17:04:42.047Z,22.29
2023-05-15T17:07:10.361Z,21.24
2023-05-15T17:09:40.692Z,21.78
2023-05-15T17:12:08.848Z,21.51
2023-05-15T17:14:36.788Z,21.33
2023-05-15T17:17:04.851Z,21.19
2023-05-15T17:19:34.466Z,20.94
2023-05-15T17:22:02.518Z,19.83
2023-05-15T17:24:42.339Z,20.47
2023-05-15T17:27:20.581Z,20.41
2023-05-15T17:29:49.759Z,20.36
2023-05-15T17:32:18.459Z,20.32
2023-05-15T17:34:46.462Z,20.24
2023-05-15T17:37:15.001Z,20.21
2023-05-15T17:39:43.231Z,20.10
2023-05-15T17:42:11.241Z,20.04
2023-05-15T17:44:40.983Z,20.04
2023-05-15T17:47:10.240Z,20.03
2023-05-15T17:49:38.704Z,19.72
2023-05-15T17:52:07.216Z,20.08
2023-05-15T17:54:35.096Z,19.81
2023-05-15T17:57:03.147Z,20.07
2023-05-15T17:59:31.217Z,20.01
2023-05-15T18:02:00.682Z,20.00
2023-05-15T18:04:30.587Z,20.08
2023-05-15T18:06:58.424Z,20.02
2023-05-15T18:09:26.656Z,20.02
2023-05-15T18:11:54.567Z,19.98
2023-05-15T18:14:22.394Z,19.88
2023-05-15T18:16:50.232Z,19.38
2023-05-15T18:19:19.691Z,19.60
2023-05-15T18:21:47.547Z,19.65
2023-05-15T18:24:15.414Z,19.58
2023-05-15T18:26:43.622Z,19.52
2023-05-15T18:29:11.595Z,19.44
2023-05-15T18:31:39.665Z,19.33
2023-05-15T18:34:07.691Z,19.22
2023-05-15T18:36:37.005Z,19.11
2023-05-15T18:39:07.312Z,19.00
2023-05-15T18:41:35.208Z,18.88
2023-05-15T18:44:03.100Z,18.70
2023-05-15T18:46:34.186Z,18.65
2023-05-15T18:49:04.941Z,18.51
2023-05-15T18:51:32.754Z,18.46
2023-05-15T18:54:02.020Z,18.37
2023-05-15T18:56:31.178Z,18.27
2023-05-15T18:58:59.009Z,18.19
2023-05-15T19:01:26.974Z,18.02
2023-05-15T19:03:54.888Z,17.96
2023-05-15T19:06:22.772Z,17.90
2023-05-15T19:08:50.667Z,17.79
2023-05-15T19:11:19.933Z,17.71
2023-05-15T19:13:47.810Z,17.63
2023-05-15T19:16:15.728Z,17.56
2023-05-15T19:18:44.037Z,17.48
2023-05-15T19:21:12.045Z,17.32
2023-05-15T19:23:39.881Z,17.22
2023-05-15T19:26:07.782Z,17.04
2023-05-15T19:28:37.651Z,16.84
2023-05-15T19:31:08.202Z,15.89
2023-05-15T19:33:39.838Z,16.66
2023-05-15T19:36:07.930Z,16.55
2023-05-15T19:38:35.769Z,16.48
2023-05-15T19:41:04.205Z,16.44
2023-05-15T19:43:35.834Z,16.43
2023-05-15T19:46:05.526Z,16.43
2023-05-15T19:48:33.749Z,16.40
2023-05-15T19:51:01.580Z,16.39
2023-05-15T19:53:29.553Z,16.37
2023-05-15T19:55:58.541Z,16.28
2023-05-15T19:58:26.404Z,16.36
2023-05-15T20:00:54.996Z,16.33
2023-05-15T20:03:25.909Z,16.16
2023-05-15T20:05:54.022Z,16.25
2023-05-15T20:08:22.113Z,16.18
2023-05-15T20:10:52.683Z,16.11
2023-05-15T20:13:20.929Z,16.00
2023-05-15T20:15:54.843Z,15.87
2023-05-15T20:18:24.386Z,15.94
2023-05-15T20:20:53.476Z,15.88
2023-05-15T20:23:22.048Z,15.71
2023-05-15T20:25:51.367Z,15.76
2023-05-15T20:28:19.555Z,15.72
2023-05-15T20:30:47.732Z,15.69
2023-05-15T20:33:15.793Z,15.67
2023-05-15T20:35:45.515Z,15.42
2023-05-15T20:38:13.884Z,15.53
2023-05-15T20:40:41.704Z,15.55
2023-05-15T20:43:09.677Z,15.47
2023-05-15T20:45:37.545Z,15.39
2023-05-15T20:48:06.800Z,15.31
2023-05-15T20:50:34.715Z,15.26
2023-05-15T20:53:04.189Z,15.18
2023-05-15T20:55:32.060Z,15.19
2023-05-15T20:57:59.959Z,15.17
2023-05-15T21:00:28.343Z,15.11
2023-05-15T21:02:56.387Z,15.08
2023-05-15T21:05:24.411Z,15.04
2023-05-15T21:07:52.274Z,15.03
2023-05-15T21:10:21.480Z,15.02
2023-05-15T21:12:49.452Z,14.90
2023-05-15T21:15:17.543Z,14.77
2023-05-15T21:17:45.887Z,14.96
2023-05-15T21:20:14.066Z,14.87
2023-05-15T21:22:41.958Z,14.86
2023-05-15T21:25:11.268Z,14.81
2023-05-15T21:27:42.091Z,14.74
2023-05-15T21:30:11.113Z,14.67
2023-05-15T21:32:39.031Z,14.15
2023-05-15T21:35:07.528Z,14.58
2023-05-15T21:37:35.393Z,14.54
2023-05-15T21:40:03.270Z,14.49
2023-05-15T21:42:32.292Z,14.37
2023-05-15T21:45:02.120Z,14.30
2023-05-15T21:47:30.773Z,14.35
2023-05-15T21:49:58.715Z,14.30
2023-05-15T21:52:26.538Z,14.05
2023-05-15T21:54:54.918Z,14.08
2023-05-15T21:57:23.404Z,14.19
2023-05-15T21:59:51.299Z,14.10
2023-05-15T22:02:20.535Z,14.14
2023-05-15T22:04:48.431Z,14.07
2023-05-15T22:07:17.587Z,14.13
2023-05-15T22:09:45.640Z,14.07
2023-05-15T22:12:26.720Z,14.13
2023-05-15T22:14:58.936Z,14.12
2023-05-15T22:17:30.525Z,14.11
2023-05-15T22:20:07.053Z,13.87
2023-05-15T22:22:36.424Z,14.08
2023-05-15T22:25:04.505Z,13.29
2023-05-15T22:27:32.822Z,14.12
2023-05-15T22:30:00.882Z,14.10
2023-05-15T22:32:30.119Z,14.08
2023-05-15T22:34:58.088Z,14.11
2023-05-15T22:37:28.225Z,14.10
2023-05-15T22:39:56.050Z,14.10
2023-05-15T22:42:24.067Z,14.02
2023-05-15T22:44:54.044Z,14.09
2023-05-15T22:47:22.050Z,14.01
2023-05-15T22:49:51.380Z,14.03
2023-05-15T22:52:19.715Z,14.02
2023-05-15T22:55:21.433Z,13.98
2023-05-15T22:57:49.558Z,13.98
2023-05-15T23:00:19.167Z,13.89
2023-05-15T23:02:47.190Z,13.87
2023-05-15T23:05:16.470Z,13.83
2023-05-15T23:08:43.695Z,13.80
2023-05-15T23:11:11.713Z,13.78
2023-05-15T23:13:39.534Z,13.73
2023-05-15T23:16:07.798Z,13.75
2023-05-15T23:18:35.771Z,13.78
2023-05-15T23:21:05.097Z,13.81
2023-05-15T23:23:32.947Z,13.80
2023-05-15T23:26:01.468Z,13.75
2023-05-15T23:28:29.503Z,13.75
2023-05-15T23:30:57.485Z,13.72
2023-05-15T23:33:25.608Z,13.78
2023-05-15T23:35:53.451Z,13.75
2023-05-15T23:38:23.641Z,13.63
2023-05-15T23:40:52.656Z,13.70
2023-05-15T23:43:20.699Z,13.66
2023-05-15T23:45:48.547Z,13.59
2023-05-15T23:48:16.673Z,13.56
2023-05-15T23:50:44.848Z,13.53
2023-05-15T23:53:12.712Z,13.41
2023-05-15T23:55:42.001Z,13.40
2023-05-15T23:58:09.886Z,13.26
